SRZ weather

El Trompillo Airport
Santa Cruz, Santa Cruz Department, Bolivia

Public forecast

Using degrees Celsius for public forecast. Weather courtesy of forecast.io.

Current aviation weather report (METAR) for El Trompillo Airport

Retrieved 2020/02/17 23:00 UTC (1 hour ago):

SLET 172300Z 32013KT 9999 FEW008 SCT015 BKN200 27/24 Q1004

Aviation forecast (TAF) for El Trompillo Airport

Retrieved 2020-02-18 00:09 UTC (0 seconds ago):

TAF SLET 172310Z 1800/1824 33012KT 9999 SCT015 TX32/1820Z TN24/1810Z PROB30 TEMPO 1809/1811 6000 RA BKN008 BECMG 1814/1816 33015G25KT BKN020 TEMPO 1819/1823 FEW027CB